Bethpage, TN (37022)

12:49 PM CDT on August 31, 2015 (GMT -0500)
Emerald Acres | | Change Station
CLOSE
Current Station
Personal Weather Station
Location: Castalian Springs, TN
Elevation: 531 ft
Nearby Weather Stations

Elev 531 ft 36.43 °N, 86.33 °W | Updated 11 seconds ago

Partly Cloudy
Partly Cloudy
82.8 °F
Feels Like 86 °F
N
4.2
Wind Variable Wind from SSE
Gusts 7.4 mph

Today
High -- | Low -- °F
--% Chance of Precip.
Yesterday
High -- | Low -- °F
Precip. -- in
6:15 AM 7:15 PM
Waning Gibbous, 94% visible
Pressure 30.14 in
Visibility 10.0 miles
Clouds Clear
Heat Index 86 °F
Dew Point 69 °F
Humidity 63%
Rainfall 0.00 in
Snow Depth Not available.
UV 7.0 out of 12
Pollen 9.50 out of 12
Air Quality Not available.
Flu Activity Not available.
METAR KBWG 311653Z AUTO 00000KT 10SM CLR 29/18 A3015 RMK AO2 SLP204 T02890183
Pressure 30.14 in
Visibility 10.0 miles
Clouds Clear
Heat Index 86 °F
Dew Point 69 °F
Humidity 63%
Rainfall 0.00 in
Snow Depth Not available.
UV 7.0 out of 12
Pollen 9.50 out of 12
Air Quality Not available.
Flu Activity Not available.
METAR KBWG 311653Z AUTO 00000KT 10SM CLR 29/18 A3015 RMK AO2 SLP204 T02890183

10-Day Weather Forecast

×

Almanac

Astronomy

Aug. 31, 2015 Rise Set
Actual Time
Civil Twilight
Nautical Twilight
Astronomical Twilight
Moon
Length of Visible Light
Length of Day
Tomorrow will be .
, % of the Moon is Illuminated

Today's Extremes

State Highs State Lows

Community

WunderPhotos

Upload Photos

1,851,328 photos uploaded!

WunderBlogs® & News

Nearby

Air Quality

  Air Quality AQ Index Pollutant
Not available.

Snow Depth

Station Depth Elevation

Earthquake Activity

City Distance Mag. Time & Date
Minimum magnitude displayed is 2.5.

Coastal Water Temperatures

Place Temperature

Stations

Nearby Weather Stations

Station Location Temp. Windchill Dew Point Humidity Wind Precip. Elev Updated Type